Handytankers Miracle — V7OM4 — position and weather

sailwx.info

Track history (hours):
 
Tides and Currents Weather Stations Pressure Air Temp Water Temp Dewpoint Dewpoint Depression Visibility Wind Speed Wind Dir Waves Ship Positions

Handytankers Miracle

Last reported at 2016-Nov-17 02:33 UTC. Time now 2016-Dec-10 18:35 UTC.
Position S 29°17' E 031°50'.
Warning: this ship's position is 23 days out of date.

Length 183 m; draft 7.2 m.

Type: Tanker. MMSI: 538003114.

Date/timePositionNaut miles runAvg speedWind from/ knotsBaromVisibWave heightAir tempDewpointWater temp
2016-Nov-17 02:33S 29°17' E 031°50'3411.2
2016-Nov-16 23:33S 29°40' E 031°22'21 7.2
2016-Nov-16 20:33S 29°53' E 031°02'0 0.0
2016-Nov-16 19:30S 29°53' E 031°02'0 0.0
2016-Nov-16 18:33S 29°53' E 031°02'0 0.0
2016-Nov-16 17:33S 29°53' E 031°02'0 0.0
2016-Nov-16 16:33S 29°53' E 031°02'0 0.0
2016-Nov-16 12:21S 29°53' E 031°02'0 0.0
2016-Nov-16 09:33S 29°53' E 031°02'0 0.0
2016-Nov-16 08:33S 29°53' E 031°02'0 0.0
2016-Nov-16 07:24S 29°53' E 031°02'0 0.0
2016-Nov-16 06:30S 29°53' E 031°02'0 0.0
2016-Nov-16 04:30S 29°53' E 031°02'0 0.0
2016-Nov-16 03:33S 29°53' E 031°02'0 0.0
2016-Nov-15 21:33S 29°53' E 031°02'0 0.0
2016-Nov-15 19:33S 29°53' E 031°02'1 0.8
2016-Nov-15 18:33S 29°53' E 031°03'14 2.7
2016-Nov-15 13:32S 29°42' E 031°13'0 0.1
2016-Nov-15 12:32S 29°42' E 031°13'1 0.6
2016-Nov-15 11:33S 29°42' E 031°13'0 0.0
2016-Nov-15 10:33S 29°42' E 031°13'0 0.0
2016-Nov-15 07:30S 29°42' E 031°13'0 0.0
2016-Nov-15 06:33S 29°42' E 031°13'0 0.0
2016-Nov-15 05:45S 29°42' E 031°13'0 0.0
2016-Nov-15 03:33S 29°42' E 031°13'0 0.0
2016-Nov-15 02:33S 29°42' E 031°13'0 0.0
2016-Nov-15 00:33S 29°42' E 031°13'0 0.0
2016-Nov-14 23:42S 29°42' E 031°13'0 0.0
2016-Nov-14 19:33S 29°42' E 031°13'0 0.0
2016-Nov-14 17:33S 29°42' E 031°13'0 0.0
2016-Nov-14 16:33S 29°42' E 031°13'0 0.0
2016-Nov-14 15:33S 29°42' E 031°13'3 0.7
2016-Nov-14 11:33S 29°43' E 031°16'22 7.3
2016-Nov-14 08:33S 29°29' E 031°35'  
Track history (hours):
 
Tides and Currents Weather Stations Pressure Air Temp Water Temp Dewpoint Dewpoint Depression Visibility Wind Speed Wind Dir Waves Ship Positions

Handytankers Miracle

Last reported at 2016-Nov-17 02:33 UTC. Time now 2016-Dec-10 18:35 UTC.
Position S 29°17' E 031°50'.
Warning: this ship's position is 23 days out of date.

Length 183 m; draft 7.2 m.

Type: Tanker. MMSI: 538003114.

Date/timePositionNaut miles runAvg speedWind from/ knotsBaromVisibWave heightAir tempDewpointWater temp
2016-Nov-17 02:33S 29°17' E 031°50'3411.2
2016-Nov-16 23:33S 29°40' E 031°22'21 7.2
2016-Nov-16 20:33S 29°53' E 031°02'0 0.0
2016-Nov-16 19:30S 29°53' E 031°02'0 0.0
2016-Nov-16 18:33S 29°53' E 031°02'0 0.0
2016-Nov-16 17:33S 29°53' E 031°02'0 0.0
2016-Nov-16 16:33S 29°53' E 031°02'0 0.0
2016-Nov-16 12:21S 29°53' E 031°02'0 0.0
2016-Nov-16 09:33S 29°53' E 031°02'0 0.0
2016-Nov-16 08:33S 29°53' E 031°02'0 0.0
2016-Nov-16 07:24S 29°53' E 031°02'0 0.0
2016-Nov-16 06:30S 29°53' E 031°02'0 0.0
2016-Nov-16 04:30S 29°53' E 031°02'0 0.0
2016-Nov-16 03:33S 29°53' E 031°02'0 0.0
2016-Nov-15 21:33S 29°53' E 031°02'0 0.0
2016-Nov-15 19:33S 29°53' E 031°02'1 0.8
2016-Nov-15 18:33S 29°53' E 031°03'14 2.7
2016-Nov-15 13:32S 29°42' E 031°13'0 0.1
2016-Nov-15 12:32S 29°42' E 031°13'1 0.6
2016-Nov-15 11:33S 29°42' E 031°13'0 0.0
2016-Nov-15 10:33S 29°42' E 031°13'0 0.0
2016-Nov-15 07:30S 29°42' E 031°13'0 0.0
2016-Nov-15 06:33S 29°42' E 031°13'0 0.0
2016-Nov-15 05:45S 29°42' E 031°13'0 0.0
2016-Nov-15 03:33S 29°42' E 031°13'0 0.0
2016-Nov-15 02:33S 29°42' E 031°13'0 0.0
2016-Nov-15 00:33S 29°42' E 031°13'0 0.0
2016-Nov-14 23:42S 29°42' E 031°13'0 0.0
2016-Nov-14 19:33S 29°42' E 031°13'0 0.0
2016-Nov-14 17:33S 29°42' E 031°13'0 0.0
2016-Nov-14 16:33S 29°42' E 031°13'0 0.0
2016-Nov-14 15:33S 29°42' E 031°13'3 0.7
2016-Nov-14 11:33S 29°43' E 031°16'22 7.3
2016-Nov-14 08:33S 29°29' E 031°35'  

Dump ship's entire track history